sensor_id;sensor_type;location;lat;lon;timestamp;pressure;altitude;pressure_sealevel;temperature;humidity
69187;BME280;56301;56.864;60.554;2023-09-30T00:00:19;98517.69;;;23.90;48.25
69187;BME280;56301;56.864;60.554;2023-09-30T00:02:41;98519.53;;;23.89;47.07
69187;BME280;56301;56.864;60.554;2023-09-30T00:05:04;98519.72;;;24.02;47.86
69187;BME280;56301;56.864;60.554;2023-09-30T00:07:27;98521.13;;;24.13;47.25
69187;BME280;56301;56.864;60.554;2023-09-30T00:09:49;98526.44;;;24.21;47.21
69187;BME280;56301;56.864;60.554;2023-09-30T00:12:12;98530.22;;;24.50;48.17
69187;BME280;56301;56.864;60.554;2023-09-30T00:14:34;98530.78;;;24.45;48.67
69187;BME280;56301;56.864;60.554;2023-09-30T00:16:57;98531.38;;;24.18;48.94
69187;BME280;56301;56.864;60.554;2023-09-30T00:19:19;98537.53;;;23.97;47.12
69187;BME280;56301;56.864;60.554;2023-09-30T00:21:42;98532.28;;;23.81;47.41
69187;BME280;56301;56.864;60.554;2023-09-30T00:24:04;98540.28;;;23.74;47.76
69187;BME280;56301;56.864;60.554;2023-09-30T00:26:27;98539.16;;;23.68;48.06
69187;BME280;56301;56.864;60.554;2023-09-30T00:28:49;98538.47;;;23.66;48.16
69187;BME280;56301;56.864;60.554;2023-09-30T00:31:12;98548.50;;;23.58;48.62
69187;BME280;56301;56.864;60.554;2023-09-30T00:33:34;98551.44;;;23.71;47.25
69187;BME280;56301;56.864;60.554;2023-09-30T00:35:57;98540.59;;;23.79;47.00
69187;BME280;56301;56.864;60.554;2023-09-30T00:38:19;98547.94;;;23.85;47.47
69187;BME280;56301;56.864;60.554;2023-09-30T00:40:48;98554.88;;;24.02;48.83
69187;BME280;56301;56.864;60.554;2023-09-30T00:43:17;98554.88;;;24.17;48.40
69187;BME280;56301;56.864;60.554;2023-09-30T00:45:39;98551.41;;;23.94;47.04
69187;BME280;56301;56.864;60.554;2023-09-30T00:48:03;98557.44;;;23.81;47.30
69187;BME280;56301;56.864;60.554;2023-09-30T00:50:25;98568.78;;;23.76;46.87
69187;BME280;56301;56.864;60.554;2023-09-30T00:52:48;98578.28;;;23.72;47.08
69187;BME280;56301;56.864;60.554;2023-09-30T00:55:11;98576.78;;;23.70;46.85
69187;BME280;56301;56.864;60.554;2023-09-30T00:57:33;98567.84;;;23.69;46.65
69187;BME280;56301;56.864;60.554;2023-09-30T00:59:57;98586.75;;;23.69;47.96
69187;BME280;56301;56.864;60.554;2023-09-30T01:02:19;98583.84;;;23.71;47.65
69187;BME280;56301;56.864;60.554;2023-09-30T01:04:42;98582.66;;;23.73;47.62
69187;BME280;56301;56.864;60.554;2023-09-30T01:07:04;98579.88;;;23.82;46.78
69187;BME280;56301;56.864;60.554;2023-09-30T01:09:27;98583.72;;;23.87;47.06
69187;BME280;56301;56.864;60.554;2023-09-30T01:11:50;98584.63;;;24.17;49.30
69187;BME280;56301;56.864;60.554;2023-09-30T01:16:47;98597.16;;;23.95;48.20
69187;BME280;56301;56.864;60.554;2023-09-30T01:19:09;98593.69;;;23.87;47.98
69187;BME280;56301;56.864;60.554;2023-09-30T01:21:33;98598.16;;;23.80;47.87
69187;BME280;56301;56.864;60.554;2023-09-30T01:23:57;98604.75;;;23.77;48.10
69187;BME280;56301;56.864;60.554;2023-09-30T01:26:19;98604.28;;;23.73;47.66
69187;BME280;56301;56.864;60.554;2023-09-30T01:28:42;98615.06;;;23.73;48.03
69187;BME280;56301;56.864;60.554;2023-09-30T01:31:05;98607.31;;;23.70;48.09
69187;BME280;56301;56.864;60.554;2023-09-30T01:33:28;98605.91;;;23.83;47.95
69187;BME280;56301;56.864;60.554;2023-09-30T01:35:50;98613.69;;;24.00;48.31
69187;BME280;56301;56.864;60.554;2023-09-30T01:38:13;98613.13;;;24.05;47.61
69187;BME280;56301;56.864;60.554;2023-09-30T01:40:35;98611.09;;;24.22;50.08
69187;BME280;56301;56.864;60.554;2023-09-30T01:42:57;98611.50;;;24.34;48.88
69187;BME280;56301;56.864;60.554;2023-09-30T01:45:20;98622.34;;;24.11;48.01
69187;BME280;56301;56.864;60.554;2023-09-30T01:47:42;98626.25;;;23.93;47.68
69187;BME280;56301;56.864;60.554;2023-09-30T01:50:05;98634.78;;;23.82;47.50
69187;BME280;56301;56.864;60.554;2023-09-30T01:52:27;98627.69;;;23.81;47.79
69187;BME280;56301;56.864;60.554;2023-09-30T01:54:50;98623.03;;;23.75;47.93
69187;BME280;56301;56.864;60.554;2023-09-30T01:57:12;98635.66;;;23.74;48.18
69187;BME280;56301;56.864;60.554;2023-09-30T01:59:35;98638.34;;;23.74;49.07
69187;BME280;56301;56.864;60.554;2023-09-30T02:01:57;98640.34;;;23.81;48.11
69187;BME280;56301;56.864;60.554;2023-09-30T02:04:20;98636.56;;;23.90;48.45
69187;BME280;56301;56.864;60.554;2023-09-30T02:06:43;98649.69;;;23.93;47.49
69187;BME280;56301;56.864;60.554;2023-09-30T02:09:05;98656.25;;;23.98;47.56
69187;BME280;56301;56.864;60.554;2023-09-30T02:11:28;98648.22;;;24.28;49.71
69187;BME280;56301;56.864;60.554;2023-09-30T02:13:50;98651.75;;;24.29;48.77
69187;BME280;56301;56.864;60.554;2023-09-30T02:16:13;98656.38;;;24.05;48.18
69187;BME280;56301;56.864;60.554;2023-09-30T02:18:36;98659.19;;;23.89;48.33
69187;BME280;56301;56.864;60.554;2023-09-30T02:20:58;98673.44;;;23.83;47.33
69187;BME280;56301;56.864;60.554;2023-09-30T02:23:21;98664.84;;;23.79;47.89
69187;BME280;56301;56.864;60.554;2023-09-30T02:25:44;98670.78;;;23.74;48.32
69187;BME280;56301;56.864;60.554;2023-09-30T02:28:06;98677.41;;;23.72;48.45
69187;BME280;56301;56.864;60.554;2023-09-30T02:30:29;98676.91;;;23.68;48.73
69187;BME280;56301;56.864;60.554;2023-09-30T02:32:51;98680.22;;;23.78;48.63
69187;BME280;56301;56.864;60.554;2023-09-30T02:35:14;98679.97;;;23.88;48.25
69187;BME280;56301;56.864;60.554;2023-09-30T02:37:36;98685.03;;;23.91;47.89
69187;BME280;56301;56.864;60.554;2023-09-30T02:39:59;98689.88;;;23.96;48.66
69187;BME280;56301;56.864;60.554;2023-09-30T02:42:21;98687.47;;;24.24;49.50
69187;BME280;56301;56.864;60.554;2023-09-30T02:44:44;98685.19;;;24.13;47.99
69187;BME280;56301;56.864;60.554;2023-09-30T02:47:06;98691.47;;;23.90;47.66
69187;BME280;56301;56.864;60.554;2023-09-30T02:49:32;98692.72;;;23.80;48.68
69187;BME280;56301;56.864;60.554;2023-09-30T02:51:54;98698.00;;;23.73;48.00
69187;BME280;56301;56.864;60.554;2023-09-30T02:54:17;98711.00;;;23.69;48.32
69187;BME280;56301;56.864;60.554;2023-09-30T02:56:39;98714.03;;;23.66;47.93
69187;BME280;56301;56.864;60.554;2023-09-30T02:59:02;98712.72;;;23.62;48.54
69187;BME280;56301;56.864;60.554;2023-09-30T03:01:24;98709.66;;;23.65;48.03
69187;BME280;56301;56.864;60.554;2023-09-30T03:03:47;98707.41;;;23.77;48.21
69187;BME280;56301;56.864;60.554;2023-09-30T03:06:10;98712.47;;;23.80;47.43
69187;BME280;56301;56.864;60.554;2023-09-30T03:08:32;98715.66;;;23.84;47.77
69187;BME280;56301;56.864;60.554;2023-09-30T03:10:54;98720.88;;;24.08;49.80
69187;BME280;56301;56.864;60.554;2023-09-30T03:13:17;98716.13;;;24.10;47.81
69187;BME280;56301;56.864;60.554;2023-09-30T03:15:39;98722.56;;;23.86;47.69
69187;BME280;56301;56.864;60.554;2023-09-30T03:18:02;98723.81;;;23.75;47.82
69187;BME280;56301;56.864;60.554;2023-09-30T03:20:25;98732.41;;;23.79;47.86
69187;BME280;56301;56.864;60.554;2023-09-30T03:22:47;98727.66;;;23.81;48.20
69187;BME280;56301;56.864;60.554;2023-09-30T03:25:10;98737.13;;;23.77;48.59
69187;BME280;56301;56.864;60.554;2023-09-30T03:27:33;98746.41;;;23.74;47.93
69187;BME280;56301;56.864;60.554;2023-09-30T03:29:55;98737.69;;;23.64;48.77
69187;BME280;56301;56.864;60.554;2023-09-30T03:32:18;98744.75;;;23.73;48.18
69187;BME280;56301;56.864;60.554;2023-09-30T03:34:40;98743.34;;;23.86;47.78
69187;BME280;56301;56.864;60.554;2023-09-30T03:37:03;98749.69;;;23.93;47.50
69187;BME280;56301;56.864;60.554;2023-09-30T03:39:25;98744.72;;;24.05;49.92
69187;BME280;56301;56.864;60.554;2023-09-30T03:41:48;98751.38;;;24.17;48.97
69187;BME280;56301;56.864;60.554;2023-09-30T03:44:10;98748.16;;;23.98;47.63
69187;BME280;56301;56.864;60.554;2023-09-30T03:46:32;98761.94;;;23.81;47.60
69187;BME280;56301;56.864;60.554;2023-09-30T03:48:55;98758.25;;;23.73;47.81
69187;BME280;56301;56.864;60.554;2023-09-30T03:51:18;98761.31;;;23.70;47.94
69187;BME280;56301;56.864;60.554;2023-09-30T03:56:03;98768.06;;;23.66;48.06
69187;BME280;56301;56.864;60.554;2023-09-30T03:58:25;98762.34;;;23.61;47.89
69187;BME280;56301;56.864;60.554;2023-09-30T04:00:48;98770.44;;;23.69;48.05
69187;BME280;56301;56.864;60.554;2023-09-30T04:03:10;98775.16;;;23.75;47.65
69187;BME280;56301;56.864;60.554;2023-09-30T04:05:33;98765.47;;;23.81;47.32
69187;BME280;56301;56.864;60.554;2023-09-30T04:07:55;98777.09;;;23.90;48.33
69187;BME280;56301;56.864;60.554;2023-09-30T04:10:18;98774.22;;;24.14;48.67
69187;BME280;56301;56.864;60.554;2023-09-30T04:12:40;98778.53;;;24.00;47.73
69187;BME280;56301;56.864;60.554;2023-09-30T04:15:03;98787.28;;;23.80;47.53
69187;BME280;56301;56.864;60.554;2023-09-30T04:17:25;98787.31;;;23.71;47.87
69187;BME280;56301;56.864;60.554;2023-09-30T04:19:48;98786.66;;;23.69;48.17
69187;BME280;56301;56.864;60.554;2023-09-30T04:22:10;98802.34;;;23.66;47.68
69187;BME280;56301;56.864;60.554;2023-09-30T04:24:33;98796.94;;;23.66;47.81
69187;BME280;56301;56.864;60.554;2023-09-30T04:26:55;98802.19;;;23.59;48.33
69187;BME280;56301;56.864;60.554;2023-09-30T04:29:18;98807.72;;;23.66;47.97
69187;BME280;56301;56.864;60.554;2023-09-30T04:31:40;98799.47;;;23.75;47.41
69187;BME280;56301;56.864;60.554;2023-09-30T04:34:03;98799.41;;;23.84;47.49
69187;BME280;56301;56.864;60.554;2023-09-30T04:36:25;98813.09;;;23.82;47.73
69187;BME280;56301;56.864;60.554;2023-09-30T04:38:47;98812.13;;;24.06;49.65
69187;BME280;56301;56.864;60.554;2023-09-30T04:41:10;98817.56;;;23.98;47.92
69187;BME280;56301;56.864;60.554;2023-09-30T04:43:33;98821.41;;;23.72;47.03
69187;BME280;56301;56.864;60.554;2023-09-30T04:45:55;98823.09;;;23.65;47.45
69187;BME280;56301;56.864;60.554;2023-09-30T04:48:18;98834.94;;;23.64;47.21
69187;BME280;56301;56.864;60.554;2023-09-30T04:50:40;98818.38;;;23.59;47.27
69187;BME280;56301;56.864;60.554;2023-09-30T04:53:03;98828.00;;;23.62;47.43
69187;BME280;56301;56.864;60.554;2023-09-30T04:55:26;98839.50;;;23.55;48.23
69187;BME280;56301;56.864;60.554;2023-09-30T04:57:48;98835.94;;;23.63;47.12
69187;BME280;56301;56.864;60.554;2023-09-30T05:00:13;98825.78;;;23.73;46.96
69187;BME280;56301;56.864;60.554;2023-09-30T05:02:37;98848.72;;;23.77;46.96
69187;BME280;56301;56.864;60.554;2023-09-30T05:04:59;98845.19;;;23.77;46.91
69187;BME280;56301;56.864;60.554;2023-09-30T05:07:22;98839.69;;;24.01;46.20
69187;BME280;56301;56.864;60.554;2023-09-30T05:09:44;98846.97;;;23.93;46.65
69187;BME280;56301;56.864;60.554;2023-09-30T05:12:06;98851.47;;;23.69;46.18
69187;BME280;56301;56.864;60.554;2023-09-30T05:14:29;98853.16;;;23.62;46.36
69187;BME280;56301;56.864;60.554;2023-09-30T05:16:51;98869.72;;;23.59;46.49
69187;BME280;56301;56.864;60.554;2023-09-30T05:19:14;98870.06;;;23.56;46.71
69187;BME280;56301;56.864;60.554;2023-09-30T05:21:36;98866.03;;;23.52;45.98
69187;BME280;56301;56.864;60.554;2023-09-30T05:23:59;98871.75;;;23.49;46.20
69187;BME280;56301;56.864;60.554;2023-09-30T05:26:21;98861.34;;;23.46;46.37
69187;BME280;56301;56.864;60.554;2023-09-30T05:28:43;98874.78;;;23.62;46.25
69187;BME280;56301;56.864;60.554;2023-09-30T05:31:06;98865.47;;;23.73;46.58
69187;BME280;56301;56.864;60.554;2023-09-30T05:33:28;98875.75;;;23.77;46.03
69187;BME280;56301;56.864;60.554;2023-09-30T05:35:51;98873.31;;;23.99;46.90
69187;BME280;56301;56.864;60.554;2023-09-30T05:38:13;98871.94;;;24.03;47.77
69187;BME280;56301;56.864;60.554;2023-09-30T05:40:36;98884.88;;;23.76;46.10
69187;BME280;56301;56.864;60.554;2023-09-30T05:42:58;98900.75;;;23.63;46.34
69187;BME280;56301;56.864;60.554;2023-09-30T05:45:24;98888.81;;;23.58;46.64
69187;BME280;56301;56.864;60.554;2023-09-30T05:47:47;98897.25;;;23.54;46.39
69187;BME280;56301;56.864;60.554;2023-09-30T05:50:09;98891.34;;;23.51;45.91
69187;BME280;56301;56.864;60.554;2023-09-30T05:52:32;98902.50;;;23.48;45.76
69187;BME280;56301;56.864;60.554;2023-09-30T05:54:54;98896.44;;;23.46;46.98
69187;BME280;56301;56.864;60.554;2023-09-30T05:57:17;98911.94;;;23.52;46.15
69187;BME280;56301;56.864;60.554;2023-09-30T05:59:40;98908.84;;;23.63;46.36
69187;BME280;56301;56.864;60.554;2023-09-30T06:02:02;98901.97;;;23.69;46.17
69187;BME280;56301;56.864;60.554;2023-09-30T06:04:25;98913.44;;;23.71;46.14
69187;BME280;56301;56.864;60.554;2023-09-30T06:06:47;98912.16;;;23.98;47.07
69187;BME280;56301;56.864;60.554;2023-09-30T06:09:10;98907.50;;;23.84;47.25
69187;BME280;56301;56.864;60.554;2023-09-30T06:11:35;98915.78;;;23.66;46.49
69187;BME280;56301;56.864;60.554;2023-09-30T06:13:57;98918.66;;;23.56;46.64
69187;BME280;56301;56.864;60.554;2023-09-30T06:16:20;98916.84;;;23.48;46.98
69187;BME280;56301;56.864;60.554;2023-09-30T06:18:42;98919.03;;;23.45;49.07
69187;BME280;56301;56.864;60.554;2023-09-30T06:21:05;98918.53;;;23.41;47.62
69187;BME280;56301;56.864;60.554;2023-09-30T06:23:27;98925.63;;;23.34;48.57
69187;BME280;56301;56.864;60.554;2023-09-30T06:25:50;98931.16;;;23.49;47.09
69187;BME280;56301;56.864;60.554;2023-09-30T06:28:12;98921.38;;;23.56;47.00
69187;BME280;56301;56.864;60.554;2023-09-30T06:30:35;98932.53;;;23.61;47.08
69187;BME280;56301;56.864;60.554;2023-09-30T06:32:57;98931.16;;;23.65;46.84
69187;BME280;56301;56.864;60.554;2023-09-30T06:35:20;98941.41;;;23.94;48.21
69187;BME280;56301;56.864;60.554;2023-09-30T06:37:42;98935.19;;;23.86;47.92
69187;BME280;56301;56.864;60.554;2023-09-30T06:40:05;98931.00;;;23.67;47.11
69187;BME280;56301;56.864;60.554;2023-09-30T06:42:28;98934.22;;;23.54;47.16
69187;BME280;56301;56.864;60.554;2023-09-30T06:44:51;98925.47;;;23.44;47.00
69187;BME280;56301;56.864;60.554;2023-09-30T06:47:14;98941.34;;;23.22;47.51
69187;BME280;56301;56.864;60.554;2023-09-30T06:49:37;98949.78;;;23.36;46.69
69187;BME280;56301;56.864;60.554;2023-09-30T06:52:00;98951.44;;;23.45;46.97
69187;BME280;56301;56.864;60.554;2023-09-30T06:54:22;98948.38;;;23.64;47.68
69187;BME280;56301;56.864;60.554;2023-09-30T06:56:44;98960.88;;;23.73;46.80
69187;BME280;56301;56.864;60.554;2023-09-30T06:59:07;98954.22;;;23.92;46.79
69187;BME280;56301;56.864;60.554;2023-09-30T07:01:29;98949.66;;;23.93;46.38
69187;BME280;56301;56.864;60.554;2023-09-30T07:03:52;98955.94;;;23.93;48.01
69187;BME280;56301;56.864;60.554;2023-09-30T07:06:21;98959.75;;;24.07;48.19
69187;BME280;56301;56.864;60.554;2023-09-30T07:08:43;98967.50;;;24.10;47.78
69187;BME280;56301;56.864;60.554;2023-09-30T07:11:06;98964.19;;;23.92;46.74
69187;BME280;56301;56.864;60.554;2023-09-30T07:13:28;98967.28;;;23.81;46.72
69187;BME280;56301;56.864;60.554;2023-09-30T07:15:51;98963.25;;;23.68;48.88
69187;BME280;56301;56.864;60.554;2023-09-30T07:18:13;98966.94;;;23.84;47.88
69187;BME280;56301;56.864;60.554;2023-09-30T07:20:36;98969.06;;;23.96;47.53
69187;BME280;56301;56.864;60.554;2023-09-30T07:22:59;98973.78;;;24.02;46.44
69187;BME280;56301;56.864;60.554;2023-09-30T07:25:21;98974.47;;;23.96;48.24
69187;BME280;56301;56.864;60.554;2023-09-30T07:27:44;98980.66;;;24.21;48.75
69187;BME280;56301;56.864;60.554;2023-09-30T07:30:07;98983.69;;;24.26;47.15
69187;BME280;56301;56.864;60.554;2023-09-30T07:32:29;98988.88;;;23.97;48.78
69187;BME280;56301;56.864;60.554;2023-09-30T07:34:52;98987.88;;;23.90;49.53
69187;BME280;56301;56.864;60.554;2023-09-30T07:37:14;98997.00;;;23.81;49.06
69187;BME280;56301;56.864;60.554;2023-09-30T07:39:36;98991.22;;;23.92;47.18
69187;BME280;56301;56.864;60.554;2023-09-30T07:41:59;98995.06;;;24.06;47.04
69187;BME280;56301;56.864;60.554;2023-09-30T07:44:21;98997.41;;;24.17;47.30
69187;BME280;56301;56.864;60.554;2023-09-30T07:46:44;98994.31;;;24.28;49.49
69187;BME280;56301;56.864;60.554;2023-09-30T07:49:08;98994.72;;;24.56;49.07
69187;BME280;56301;56.864;60.554;2023-09-30T07:51:30;98994.59;;;24.49;49.68
69187;BME280;56301;56.864;60.554;2023-09-30T07:53:53;98993.97;;;24.39;50.63
69187;BME280;56301;56.864;60.554;2023-09-30T07:56:15;99004.19;;;24.13;50.84
69187;BME280;56301;56.864;60.554;2023-09-30T07:58:38;99002.34;;;24.05;51.84
69187;BME280;56301;56.864;60.554;2023-09-30T08:01:00;99005.72;;;24.07;52.49
69187;BME280;56301;56.864;60.554;2023-09-30T08:03:22;99011.06;;;24.23;52.07
69187;BME280;56301;56.864;60.554;2023-09-30T08:05:45;99007.34;;;24.24;53.72
69187;BME280;56301;56.864;60.554;2023-09-30T08:08:08;99011.41;;;24.20;51.91
69187;BME280;56301;56.864;60.554;2023-09-30T08:10:30;99012.91;;;24.31;50.35
69187;BME280;56301;56.864;60.554;2023-09-30T08:12:53;99012.38;;;24.44;51.16
69187;BME280;56301;56.864;60.554;2023-09-30T08:15:16;99015.09;;;24.44;51.71
69187;BME280;56301;56.864;60.554;2023-09-30T08:17:38;99013.25;;;24.28;49.05
69187;BME280;56301;56.864;60.554;2023-09-30T08:20:01;99022.28;;;24.04;49.82
69187;BME280;56301;56.864;60.554;2023-09-30T08:22:23;99020.31;;;23.90;49.94
69187;BME280;56301;56.864;60.554;2023-09-30T08:24:46;99026.69;;;23.89;49.58
69187;BME280;56301;56.864;60.554;2023-09-30T08:27:08;99019.94;;;23.93;49.45
69187;BME280;56301;56.864;60.554;2023-09-30T08:29:33;99023.47;;;24.01;51.04
69187;BME280;56301;56.864;60.554;2023-09-30T08:31:55;99017.38;;;24.08;49.87
69187;BME280;56301;56.864;60.554;2023-09-30T08:34:18;99029.31;;;24.21;49.71
69187;BME280;56301;56.864;60.554;2023-09-30T08:36:40;99029.31;;;24.21;49.57
69187;BME280;56301;56.864;60.554;2023-09-30T08:39:03;99034.69;;;24.38;49.95
69187;BME280;56301;56.864;60.554;2023-09-30T08:41:32;99028.28;;;24.31;49.23
69187;BME280;56301;56.864;60.554;2023-09-30T08:43:55;99036.63;;;24.13;49.56
69187;BME280;56301;56.864;60.554;2023-09-30T08:46:18;99029.72;;;24.02;49.07
69187;BME280;56301;56.864;60.554;2023-09-30T08:48:40;99026.34;;;24.00;49.11
69187;BME280;56301;56.864;60.554;2023-09-30T08:51:03;99029.31;;;24.21;49.40
69187;BME280;56301;56.864;60.554;2023-09-30T08:53:25;99039.59;;;24.42;49.23
69187;BME280;56301;56.864;60.554;2023-09-30T08:55:48;99036.38;;;24.39;48.44
69187;BME280;56301;56.864;60.554;2023-09-30T08:58:12;99039.41;;;24.36;48.71
69187;BME280;56301;56.864;60.554;2023-09-30T09:00:34;99037.53;;;24.53;49.55
69187;BME280;56301;56.864;60.554;2023-09-30T09:02:57;99039.41;;;24.36;50.09
69187;BME280;56301;56.864;60.554;2023-09-30T09:05:19;99033.22;;;24.11;48.16
69187;BME280;56301;56.864;60.554;2023-09-30T09:07:42;99035.81;;;23.96;48.03
69187;BME280;56301;56.864;60.554;2023-09-30T09:12:27;99043.56;;;23.99;48.07
69187;BME280;56301;56.864;60.554;2023-09-30T09:14:49;99040.16;;;24.13;49.72
69187;BME280;56301;56.864;60.554;2023-09-30T09:17:12;99043.53;;;24.23;48.12
69187;BME280;56301;56.864;60.554;2023-09-30T09:19:34;99050.44;;;24.18;49.41
69187;BME280;56301;56.864;60.554;2023-09-30T09:21:58;99044.81;;;24.36;49.71
69187;BME280;56301;56.864;60.554;2023-09-30T09:24:36;99054.94;;;24.50;49.82
69187;BME280;56301;56.864;60.554;2023-09-30T09:29:27;99048.47;;;24.03;49.08
69187;BME280;56301;56.864;60.554;2023-09-30T09:31:49;99052.72;;;23.90;48.87
69187;BME280;56301;56.864;60.554;2023-09-30T09:34:15;99055.63;;;23.72;49.91
69187;BME280;56301;56.864;60.554;2023-09-30T09:36:41;99052.72;;;23.73;48.96
69187;BME280;56301;56.864;60.554;2023-09-30T09:39:04;99051.72;;;23.83;49.42
69187;BME280;56301;56.864;60.554;2023-09-30T09:41:26;99058.63;;;23.93;48.46
69187;BME280;56301;56.864;60.554;2023-09-30T09:43:49;99066.19;;;24.06;48.51
69187;BME280;56301;56.864;60.554;2023-09-30T09:46:11;99056.22;;;24.15;49.65
69187;BME280;56301;56.864;60.554;2023-09-30T09:48:35;99052.47;;;24.40;48.60
69187;BME280;56301;56.864;60.554;2023-09-30T09:50:57;99055.13;;;24.32;49.75
69187;BME280;56301;56.864;60.554;2023-09-30T09:53:21;99065.03;;;24.00;48.83
69187;BME280;56301;56.864;60.554;2023-09-30T09:55:44;99059.97;;;23.89;48.72
69187;BME280;56301;56.864;60.554;2023-09-30T09:58:08;99065.22;;;23.83;49.48
69187;BME280;56301;56.864;60.554;2023-09-30T10:00:30;99061.16;;;23.95;48.68
69187;BME280;56301;56.864;60.554;2023-09-30T10:02:53;99067.56;;;24.02;48.45
69187;BME280;56301;56.864;60.554;2023-09-30T10:05:16;99061.97;;;24.12;49.52
69187;BME280;56301;56.864;60.554;2023-09-30T10:08:21;99071.75;;;24.21;48.40
69187;BME280;56301;56.864;60.554;2023-09-30T10:10:24;99071.41;;;24.24;50.20
69187;BME280;56301;56.864;60.554;2023-09-30T10:12:47;99068.81;;;24.47;50.74
69187;BME280;56301;56.864;60.554;2023-09-30T10:18:03;99077.19;;;24.05;48.60
69187;BME280;56301;56.864;60.554;2023-09-30T10:20:30;99082.09;;;24.01;50.13
69187;BME280;56301;56.864;60.554;2023-09-30T10:23:17;99081.25;;;24.00;49.31
69187;BME280;56301;56.864;60.554;2023-09-30T10:25:35;99076.00;;;24.15;49.88
69187;BME280;56301;56.864;60.554;2023-09-30T10:27:57;99085.94;;;24.23;49.23
69187;BME280;56301;56.864;60.554;2023-09-30T10:30:20;99088.13;;;24.27;48.90
69187;BME280;56301;56.864;60.554;2023-09-30T10:36:29;99078.97;;;24.45;49.92
69187;BME280;56301;56.864;60.554;2023-09-30T10:38:52;99086.44;;;24.26;49.73
69187;BME280;56301;56.864;60.554;2023-09-30T10:41:48;99086.81;;;24.07;48.71
69187;BME280;56301;56.864;60.554;2023-09-30T10:43:57;99087.66;;;23.99;49.16
69187;BME280;56301;56.864;60.554;2023-09-30T10:46:39;99094.94;;;23.99;49.50
69187;BME280;56301;56.864;60.554;2023-09-30T10:49:44;99097.13;;;24.12;49.63
69187;BME280;56301;56.864;60.554;2023-09-30T10:51:49;99097.25;;;24.26;48.97
69187;BME280;56301;56.864;60.554;2023-09-30T10:54:11;99097.56;;;24.40;50.98
69187;BME280;56301;56.864;60.554;2023-09-30T10:56:34;99094.25;;;25.16;48.81
69187;BME280;56301;56.864;60.554;2023-09-30T10:58:57;99096.75;;;24.79;49.57
69187;BME280;56301;56.864;60.554;2023-09-30T11:01:22;99104.34;;;24.44;50.26
69187;BME280;56301;56.864;60.554;2023-09-30T11:03:45;99106.88;;;24.21;50.25
69187;BME280;56301;56.864;60.554;2023-09-30T11:06:10;99108.44;;;24.07;49.71
69187;BME280;56301;56.864;60.554;2023-09-30T11:08:33;99112.50;;;24.03;50.52
69187;BME280;56301;56.864;60.554;2023-09-30T11:10:57;99101.84;;;24.10;49.69
69187;BME280;56301;56.864;60.554;2023-09-30T11:13:20;99108.25;;;24.17;49.82
69187;BME280;56301;56.864;60.554;2023-09-30T11:15:46;99114.16;;;24.20;49.85
69187;BME280;56301;56.864;60.554;2023-09-30T11:18:14;99112.47;;;24.27;49.92
69187;BME280;56301;56.864;60.554;2023-09-30T11:20:37;99111.25;;;24.38;51.16
69187;BME280;56301;56.864;60.554;2023-09-30T11:23:00;99106.69;;;24.55;50.93
69187;BME280;56301;56.864;60.554;2023-09-30T11:25:22;99108.72;;;24.37;49.91
69187;BME280;56301;56.864;60.554;2023-09-30T11:27:45;99103.19;;;24.14;50.27
69187;BME280;56301;56.864;60.554;2023-09-30T11:30:08;99105.41;;;24.02;50.69
69187;BME280;56301;56.864;60.554;2023-09-30T11:32:30;99112.50;;;24.03;50.23
69187;BME280;56301;56.864;60.554;2023-09-30T11:34:53;99094.94;;;23.99;49.75
69187;BME280;56301;56.864;60.554;2023-09-30T11:37:15;99101.53;;;23.80;47.46
69187;BME280;56301;56.864;60.554;2023-09-30T11:39:38;99097.50;;;23.68;46.43
69187;BME280;56301;56.864;60.554;2023-09-30T11:42:00;99117.91;;;23.70;45.83
69187;BME280;56301;56.864;60.554;2023-09-30T11:44:26;99123.00;;;23.90;46.40
69187;BME280;56301;56.864;60.554;2023-09-30T11:49:12;99128.38;;;24.22;47.45
69187;BME280;56301;56.864;60.554;2023-09-30T11:51:43;99126.72;;;23.97;47.56
69187;BME280;56301;56.864;60.554;2023-09-30T11:54:06;99121.66;;;23.86;49.34
69187;BME280;56301;56.864;60.554;2023-09-30T11:56:30;99121.28;;;23.89;48.51
69187;BME280;56301;56.864;60.554;2023-09-30T11:58:53;99122.81;;;23.91;49.18
69187;BME280;56301;56.864;60.554;2023-09-30T12:01:16;99132.25;;;24.03;49.56
69187;BME280;56301;56.864;60.554;2023-09-30T12:03:38;99132.78;;;24.15;48.02
69187;BME280;56301;56.864;60.554;2023-09-30T12:06:00;99134.78;;;24.13;48.78
69187;BME280;56301;56.864;60.554;2023-09-30T12:08:23;99126.66;;;24.30;48.04
69187;BME280;56301;56.864;60.554;2023-09-30T12:10:45;99132.72;;;24.32;49.38
69187;BME280;56301;56.864;60.554;2023-09-30T12:13:08;99128.38;;;24.06;48.86
69187;BME280;56301;56.864;60.554;2023-09-30T12:15:30;99134.66;;;23.90;48.75
69187;BME280;56301;56.864;60.554;2023-09-30T12:17:53;99137.34;;;23.82;48.87
69187;BME280;56301;56.864;60.554;2023-09-30T12:20:15;99135.50;;;23.83;48.77
69187;BME280;56301;56.864;60.554;2023-09-30T12:22:37;99128.41;;;23.90;49.04
69187;BME280;56301;56.864;60.554;2023-09-30T12:25:00;99124.31;;;24.02;51.34
69187;BME280;56301;56.864;60.554;2023-09-30T12:27:22;99129.38;;;24.13;51.65
69187;BME280;56301;56.864;60.554;2023-09-30T12:29:45;99122.28;;;24.20;49.46
69187;BME280;56301;56.864;60.554;2023-09-30T12:32:07;99124.63;;;24.32;49.61
69187;BME280;56301;56.864;60.554;2023-09-30T12:34:29;99129.34;;;24.21;49.05
69187;BME280;56301;56.864;60.554;2023-09-30T12:36:52;99126.19;;;24.01;49.77
69187;BME280;56301;56.864;60.554;2023-09-30T12:39:14;99127.19;;;23.84;49.67
69187;BME280;56301;56.864;60.554;2023-09-30T12:41:37;99128.03;;;23.76;49.50
69187;BME280;56301;56.864;60.554;2023-09-30T12:44:00;99132.44;;;23.77;49.67
69187;BME280;56301;56.864;60.554;2023-09-30T12:46:22;99132.78;;;23.91;48.53